createdAt,value
2018-07-01T00:01:01.499Z,39.00
2018-07-01T00:03:30.663Z,39.70
2018-07-01T00:05:59.862Z,39.18
2018-07-01T00:08:29.039Z,39.90
2018-07-01T00:11:04.976Z,39.32
2018-07-01T00:13:34.124Z,39.81
2018-07-01T00:16:03.363Z,39.69
2018-07-01T00:18:32.595Z,39.66
2018-07-01T00:21:01.767Z,39.64
2018-07-01T00:23:30.939Z,39.95
2018-07-01T00:26:00.482Z,39.88
2018-07-01T00:28:30.056Z,39.51
2018-07-01T00:30:59.361Z,40.37
2018-07-01T00:33:28.535Z,40.56
2018-07-01T00:35:57.729Z,40.40
2018-07-01T00:38:26.878Z,40.74
2018-07-01T00:40:56.077Z,40.38
2018-07-01T00:43:25.251Z,40.34
2018-07-01T00:45:55.375Z,39.99
2018-07-01T00:48:24.546Z,40.08
2018-07-01T00:50:53.726Z,40.54
2018-07-01T00:53:23.019Z,39.74
2018-07-01T00:55:52.182Z,40.12
2018-07-01T00:58:21.355Z,39.77
2018-07-01T01:00:50.557Z,40.36
2018-07-01T01:03:19.980Z,40.03
2018-07-01T01:05:49.155Z,40.19
2018-07-01T01:08:18.318Z,40.06
2018-07-01T01:10:47.523Z,40.23
2018-07-01T01:13:16.689Z,40.39
2018-07-01T01:15:45.885Z,40.37
2018-07-01T01:18:15.060Z,40.90
2018-07-01T01:20:44.239Z,40.58
2018-07-01T01:23:13.414Z,41.15
2018-07-01T01:25:42.672Z,40.95
2018-07-01T01:28:11.827Z,40.91
2018-07-01T01:30:41.008Z,41.51
2018-07-01T01:33:10.231Z,41.79
2018-07-01T01:35:39.423Z,41.59
2018-07-01T01:38:08.615Z,42.00
2018-07-01T01:40:47.980Z,42.65
2018-07-01T01:43:25.166Z,42.48
2018-07-01T01:45:59.630Z,43.50
2018-07-01T01:48:36.754Z,43.08
2018-07-01T01:51:12.403Z,43.39
2018-07-01T01:54:17.063Z,43.12
2018-07-01T01:57:05.229Z,43.27
2018-07-01T01:59:54.306Z,43.85
2018-07-01T02:03:26.636Z,44.16
2018-07-01T02:06:00.495Z,43.94
2018-07-01T02:08:32.523Z,44.37
2018-07-01T02:11:01.699Z,44.32
2018-07-01T02:13:31.931Z,45.15
2018-07-01T02:16:04.412Z,44.71
2018-07-01T02:18:33.653Z,45.06
2018-07-01T02:21:02.895Z,44.96
2018-07-01T02:23:35.635Z,45.50
2018-07-01T02:26:05.556Z,45.99
2018-07-01T02:28:34.759Z,45.91
2018-07-01T02:31:04.003Z,45.85
2018-07-01T02:33:33.204Z,46.33
2018-07-01T02:36:02.699Z,46.57
2018-07-01T02:38:32.318Z,46.08
2018-07-01T02:41:01.623Z,46.03
2018-07-01T02:43:31.344Z,46.60
2018-07-01T02:46:00.524Z,46.70
2018-07-01T02:48:30.856Z,46.07
2018-07-01T02:51:00.008Z,46.10
2018-07-01T02:53:29.291Z,46.20
2018-07-01T02:55:58.479Z,46.16
2018-07-01T02:58:27.655Z,46.43
2018-07-01T03:00:57.030Z,46.62
2018-07-01T03:03:26.247Z,46.21
2018-07-01T03:05:55.411Z,46.01
2018-07-01T03:08:24.571Z,46.67
2018-07-01T03:10:53.788Z,46.63
2018-07-01T03:13:22.981Z,46.91
2018-07-01T03:15:52.288Z,46.47
2018-07-01T03:18:21.456Z,46.74
2018-07-01T03:20:50.639Z,46.21
2018-07-01T03:23:19.976Z,45.92
2018-07-01T03:25:49.195Z,46.58
2018-07-01T03:28:18.579Z,46.91
2018-07-01T03:30:48.029Z,46.53
2018-07-01T03:33:17.199Z,46.79
2018-07-01T03:35:46.547Z,46.47
2018-07-01T03:38:15.702Z,46.92
2018-07-01T03:40:44.986Z,46.56
2018-07-01T03:43:14.154Z,46.80
2018-07-01T03:45:43.480Z,46.62
2018-07-01T03:48:12.658Z,46.92
2018-07-01T03:50:41.842Z,47.20
2018-07-01T03:53:11.007Z,46.74
2018-07-01T03:55:40.187Z,47.04
2018-07-01T03:58:09.383Z,47.10
2018-07-01T04:00:38.571Z,46.94
2018-07-01T04:03:07.755Z,47.34
2018-07-01T04:05:36.943Z,47.20
2018-07-01T04:08:06.858Z,47.03
2018-07-01T04:10:36.053Z,47.10
2018-07-01T04:13:05.251Z,47.06
2018-07-01T04:15:34.471Z,47.17
2018-07-01T04:18:03.645Z,46.97
2018-07-01T04:20:32.826Z,47.34
2018-07-01T04:23:01.987Z,47.47
2018-07-01T04:25:31.500Z,47.61
2018-07-01T04:28:00.684Z,47.90
2018-07-01T04:30:29.996Z,47.34
2018-07-01T04:32:59.167Z,47.01
2018-07-01T04:35:28.479Z,47.37
2018-07-01T04:37:57.659Z,47.02
2018-07-01T04:40:26.853Z,47.28
2018-07-01T04:42:56.158Z,46.52
2018-07-01T04:45:25.479Z,47.17
2018-07-01T04:47:55.466Z,47.36
2018-07-01T04:50:24.647Z,47.47
2018-07-01T04:52:54.619Z,47.06
2018-07-01T04:55:24.039Z,46.83
2018-07-01T04:57:52.984Z,46.23
2018-07-01T05:00:22.387Z,46.29
2018-07-01T05:02:51.605Z,46.22
2018-07-01T05:05:20.769Z,46.55
2018-07-01T05:07:49.942Z,46.72
2018-07-01T05:10:19.123Z,46.46
2018-07-01T05:12:48.527Z,46.44
2018-07-01T05:15:17.687Z,46.32
2018-07-01T05:17:46.903Z,46.33
2018-07-01T05:20:16.071Z,46.22
2018-07-01T05:22:45.264Z,46.62
2018-07-01T05:25:14.495Z,46.36
2018-07-01T05:27:44.071Z,46.37
2018-07-01T05:30:13.388Z,46.28
2018-07-01T05:32:42.555Z,46.34
2018-07-01T05:35:11.711Z,46.03
2018-07-01T05:37:40.894Z,46.04
2018-07-01T05:40:10.056Z,44.61
2018-07-01T05:42:39.379Z,45.49
2018-07-01T05:45:08.606Z,45.63
2018-07-01T05:47:37.803Z,44.86
2018-07-01T05:50:07.524Z,44.81
2018-07-01T05:52:36.737Z,44.80
2018-07-01T05:55:05.990Z,44.86
2018-07-01T05:57:35.721Z,43.96
2018-07-01T06:00:05.831Z,42.94
2018-07-01T06:02:35.016Z,40.60
2018-07-01T06:05:04.243Z,39.59
2018-07-01T06:07:33.406Z,39.05
2018-07-01T06:10:02.627Z,38.57
2018-07-01T06:12:31.852Z,36.99
2018-07-01T06:15:01.032Z,35.83
2018-07-01T06:17:30.183Z,34.54
2018-07-01T06:19:59.364Z,32.60
2018-07-01T06:22:28.539Z,33.91
2018-07-01T06:24:58.039Z,34.05
2018-07-01T06:27:27.210Z,34.11
2018-07-01T06:29:56.402Z,33.25
2018-07-01T06:32:25.575Z,32.79
2018-07-01T06:34:54.774Z,31.64
2018-07-01T06:37:23.944Z,31.61
2018-07-01T06:39:53.128Z,32.13
2018-07-01T06:42:22.306Z,31.16
2018-07-01T06:44:51.519Z,31.54
2018-07-01T06:47:21.397Z,31.55
2018-07-01T06:49:50.599Z,31.15
2018-07-01T06:52:20.045Z,31.18
2018-07-01T06:54:49.219Z,30.13
2018-07-01T06:57:18.403Z,29.06
2018-07-01T06:59:47.653Z,29.48
2018-07-01T07:02:16.813Z,28.86
2018-07-01T07:04:46.039Z,28.99
2018-07-01T07:07:15.218Z,28.07
2018-07-01T07:09:44.435Z,28.72
2018-07-01T07:12:13.615Z,28.69
2018-07-01T07:14:42.847Z,28.70
2018-07-01T07:17:12.027Z,27.90
2018-07-01T07:19:41.222Z,27.77
2018-07-01T07:22:10.523Z,28.55
2018-07-01T07:24:39.943Z,27.86
2018-07-01T07:27:09.248Z,26.77
2018-07-01T07:29:38.551Z,27.17
2018-07-01T07:32:09.919Z,25.95
2018-07-01T07:34:39.083Z,25.35
2018-07-01T07:37:08.251Z,25.12
2018-07-01T07:39:37.423Z,24.81
2018-07-01T07:42:06.626Z,25.00
2018-07-01T07:44:35.799Z,24.47
2018-07-01T07:47:04.999Z,24.30
2018-07-01T07:49:34.147Z,23.15
2018-07-01T07:52:03.319Z,22.79
2018-07-01T07:54:32.495Z,22.10
2018-07-01T07:57:01.667Z,22.95
2018-07-01T07:59:30.818Z,22.03
2018-07-01T08:02:00.066Z,22.31
2018-07-01T08:04:29.183Z,21.44
2018-07-01T08:06:58.359Z,21.64
2018-07-01T08:09:27.507Z,22.93
2018-07-01T08:11:56.833Z,21.95
2018-07-01T08:14:25.978Z,21.60
2018-07-01T08:16:55.183Z,22.53
2018-07-01T08:19:24.346Z,22.07
2018-07-01T08:21:53.586Z,22.41
2018-07-01T08:24:22.679Z,21.73
2018-07-01T08:26:52.059Z,21.43
2018-07-01T08:29:21.207Z,20.87
2018-07-01T08:31:50.391Z,22.15
2018-07-01T08:34:19.555Z,20.81
2018-07-01T08:36:49.026Z,20.73
2018-07-01T08:39:18.513Z,21.42
2018-07-01T08:42:40.153Z,22.71
2018-07-01T08:45:09.687Z,20.05
2018-07-01T08:47:38.835Z,19.91
2018-07-01T08:50:08.265Z,19.83
2018-07-01T08:52:37.546Z,20.50
2018-07-01T08:55:06.672Z,19.57
2018-07-01T08:57:35.887Z,20.04
2018-07-01T09:00:06.212Z,20.21
2018-07-01T09:02:35.406Z,20.42
2018-07-01T09:05:04.798Z,18.56
2018-07-01T09:07:33.991Z,21.19
2018-07-01T09:10:03.170Z,21.56
2018-07-01T09:12:32.335Z,20.74
2018-07-01T09:15:01.496Z,19.06
2018-07-01T09:17:30.648Z,20.01
2018-07-01T09:20:00.134Z,18.89
2018-07-01T09:22:29.296Z,19.98
2018-07-01T09:24:58.450Z,20.58
2018-07-01T09:27:27.627Z,20.23
2018-07-01T09:29:59.802Z,19.40
2018-07-01T09:32:29.327Z,19.85
2018-07-01T09:34:58.510Z,19.20
2018-07-01T09:37:27.659Z,19.31
2018-07-01T09:39:56.895Z,17.96
2018-07-01T09:42:26.024Z,17.33
2018-07-01T09:44:55.195Z,18.88
2018-07-01T09:47:24.359Z,19.46
2018-07-01T09:49:53.555Z,17.97
2018-07-01T09:52:22.783Z,18.14
2018-07-01T09:54:51.955Z,19.11
2018-07-01T09:57:21.119Z,18.21
2018-07-01T09:59:50.319Z,17.52
2018-07-01T10:02:19.742Z,17.90
2018-07-01T10:04:48.907Z,17.23
2018-07-01T10:07:18.175Z,16.86
2018-07-01T10:09:47.387Z,17.52
2018-07-01T10:12:16.599Z,17.21
2018-07-01T10:14:45.790Z,17.82
2018-07-01T10:17:14.948Z,18.29
2018-07-01T10:19:44.315Z,17.04
2018-07-01T10:22:13.855Z,17.27
2018-07-01T10:24:42.996Z,17.74
2018-07-01T10:27:12.711Z,17.38
2018-07-01T10:29:41.886Z,16.50
2018-07-01T10:32:11.296Z,16.66
2018-07-01T10:34:40.450Z,17.30
2018-07-01T10:37:10.381Z,18.77
2018-07-01T10:39:39.927Z,16.89
2018-07-01T10:42:09.235Z,16.11
2018-07-01T10:44:38.390Z,15.39
2018-07-01T10:47:07.708Z,18.27
2018-07-01T10:49:36.878Z,17.62
2018-07-01T10:52:06.123Z,15.87
2018-07-01T10:54:35.367Z,17.48
2018-07-01T10:57:04.788Z,15.39
2018-07-01T10:59:33.963Z,15.05
2018-07-01T11:02:03.387Z,16.79
2018-07-01T11:04:32.559Z,15.30
2018-07-01T11:07:02.024Z,14.49
2018-07-01T11:09:31.403Z,16.15
2018-07-01T11:12:00.576Z,16.33
2018-07-01T11:14:29.739Z,15.55
2018-07-01T11:16:58.927Z,16.10
2018-07-01T11:19:28.090Z,15.39
2018-07-01T11:21:57.276Z,17.48
2018-07-01T11:24:26.426Z,17.16
2018-07-01T11:26:55.705Z,17.35
2018-07-01T11:29:24.747Z,15.15
2018-07-01T11:31:53.944Z,14.51
2018-07-01T11:34:23.110Z,15.62
2018-07-01T11:36:52.288Z,15.74
2018-07-01T11:39:21.468Z,15.18
2018-07-01T11:41:50.627Z,15.29
2018-07-01T11:44:19.810Z,15.35
2018-07-01T11:46:48.991Z,14.73
2018-07-01T11:49:18.164Z,15.44
2018-07-01T11:51:47.755Z,16.00
2018-07-01T11:54:16.939Z,16.09
2018-07-01T11:56:46.133Z,15.13
2018-07-01T11:59:15.384Z,16.44
2018-07-01T12:01:44.627Z,16.30
2018-07-01T12:04:13.815Z,16.32
2018-07-01T12:06:42.957Z,17.19
2018-07-01T12:09:12.179Z,16.77
2018-07-01T12:11:41.418Z,16.25
2018-07-01T12:14:13.617Z,14.41
2018-07-01T12:16:43.828Z,14.20
2018-07-01T12:19:13.020Z,13.58
2018-07-01T12:21:42.464Z,15.87
2018-07-01T12:24:11.676Z,14.62
2018-07-01T12:26:40.867Z,14.93
2018-07-01T12:29:10.043Z,15.77
2018-07-01T12:31:39.322Z,14.75
2018-07-01T12:34:08.515Z,15.25
2018-07-01T12:36:37.658Z,14.02
2018-07-01T12:39:09.271Z,17.85
2018-07-01T12:41:38.487Z,18.13
2018-07-01T12:44:07.695Z,16.07
2018-07-01T12:46:36.861Z,15.69
2018-07-01T12:49:06.059Z,15.89
2018-07-01T12:51:35.231Z,16.37
2018-07-01T12:54:04.443Z,16.12
2018-07-01T12:56:33.615Z,15.07
2018-07-01T12:59:02.779Z,14.75
2018-07-01T13:01:31.951Z,15.58
2018-07-01T13:04:01.138Z,17.35
2018-07-01T13:06:30.283Z,16.80
2018-07-01T13:08:59.454Z,15.35
2018-07-01T13:11:28.691Z,16.70
2018-07-01T13:13:58.988Z,15.82
2018-07-01T13:16:28.571Z,16.67
2018-07-01T13:18:57.733Z,16.52
2018-07-01T13:21:26.899Z,16.46
2018-07-01T13:23:56.078Z,17.73
2018-07-01T13:26:25.519Z,16.19
2018-07-01T13:28:54.778Z,16.04
2018-07-01T13:31:24.218Z,17.68
2018-07-01T13:33:53.495Z,18.75
2018-07-01T13:36:23.067Z,16.95
2018-07-01T13:38:52.559Z,18.00
2018-07-01T13:41:21.775Z,16.89
2018-07-01T13:43:51.031Z,16.78
2018-07-01T13:46:20.527Z,15.97
2018-07-01T13:48:49.698Z,17.38
2018-07-01T13:51:19.043Z,17.49
2018-07-01T13:53:48.309Z,16.58
2018-07-01T13:56:17.499Z,17.28
2018-07-01T13:58:46.659Z,16.95
2018-07-01T14:01:15.856Z,17.16
2018-07-01T14:03:45.017Z,18.49
2018-07-01T14:06:14.220Z,18.29
2018-07-01T14:08:43.449Z,18.90
2018-07-01T14:11:12.543Z,19.51
2018-07-01T14:13:41.747Z,18.89
2018-07-01T14:16:10.939Z,19.71
2018-07-01T14:18:40.079Z,19.67
2018-07-01T14:21:09.398Z,20.22
2018-07-01T14:23:38.651Z,18.34
2018-07-01T14:26:08.075Z,18.67
2018-07-01T14:28:37.291Z,18.88
2018-07-01T14:31:06.487Z,18.64
2018-07-01T14:33:35.664Z,18.84
2018-07-01T14:36:05.028Z,20.14
2018-07-01T14:38:34.315Z,19.72
2018-07-01T14:41:03.565Z,21.49
2018-07-01T14:43:32.752Z,21.17
2018-07-01T14:46:02.015Z,21.21
2018-07-01T14:48:31.739Z,20.39
2018-07-01T14:51:00.911Z,21.18
2018-07-01T14:53:30.095Z,21.02
2018-07-01T14:55:59.268Z,20.72
2018-07-01T14:58:28.539Z,20.63
2018-07-01T15:00:57.932Z,20.94
2018-07-01T15:03:27.569Z,22.22
2018-07-01T15:05:57.008Z,22.31
2018-07-01T15:08:26.187Z,22.25
2018-07-01T15:10:55.340Z,22.56
2018-07-01T15:13:24.912Z,22.37
2018-07-01T15:15:54.084Z,23.00
2018-07-01T15:18:23.315Z,23.21
2018-07-01T15:20:52.479Z,21.68
2018-07-01T15:23:21.639Z,21.37
2018-07-01T15:25:50.802Z,22.13
2018-07-01T15:28:20.023Z,21.84
2018-07-01T15:30:49.195Z,21.97
2018-07-01T15:33:18.576Z,21.90
2018-07-01T15:35:47.740Z,21.74
2018-07-01T15:38:16.918Z,23.35
2018-07-01T15:40:46.100Z,23.17
2018-07-01T15:43:15.499Z,23.19
2018-07-01T15:45:44.700Z,24.56
2018-07-01T15:48:13.887Z,22.20
2018-07-01T15:50:43.099Z,24.04
2018-07-01T15:53:12.662Z,24.11
2018-07-01T15:55:41.835Z,22.99
2018-07-01T15:58:10.983Z,23.80
2018-07-01T16:00:41.061Z,23.86
2018-07-01T16:03:10.219Z,23.72
2018-07-01T16:05:39.391Z,23.20
2018-07-01T16:08:08.951Z,23.84
2018-07-01T16:10:38.116Z,23.11
2018-07-01T16:13:07.275Z,24.79
2018-07-01T16:15:36.459Z,23.35
2018-07-01T16:18:05.631Z,22.53
2018-07-01T16:20:34.823Z,24.26
2018-07-01T16:23:04.078Z,24.29
2018-07-01T16:25:42.295Z,24.88
2018-07-01T16:28:16.603Z,25.17
2018-07-01T16:30:46.291Z,24.72
2018-07-01T16:33:15.454Z,24.85
2018-07-01T16:35:44.893Z,24.76
2018-07-01T16:38:14.083Z,25.94
2018-07-01T16:40:44.014Z,24.09
2018-07-01T16:43:13.280Z,24.69
2018-07-01T16:45:42.451Z,25.42
2018-07-01T16:48:11.603Z,24.15
2018-07-01T16:50:40.797Z,25.44
2018-07-01T16:53:09.971Z,24.66
2018-07-01T16:55:39.406Z,25.00
2018-07-01T16:58:08.816Z,26.08
2018-07-01T17:00:37.963Z,26.86
2018-07-01T17:03:07.428Z,25.10
2018-07-01T17:05:36.801Z,25.61
2018-07-01T17:08:05.852Z,25.28
2018-07-01T17:10:35.054Z,25.46
2018-07-01T17:13:04.261Z,25.01
2018-07-01T17:15:33.415Z,24.75
2018-07-01T17:18:02.947Z,24.86
2018-07-01T17:20:32.459Z,24.67
2018-07-01T17:23:01.919Z,24.87
2018-07-01T17:25:31.322Z,24.77
2018-07-01T17:28:00.496Z,25.43
2018-07-01T17:30:29.779Z,25.47
2018-07-01T17:33:04.183Z,26.25
2018-07-01T17:35:33.377Z,26.25
2018-07-01T17:38:02.702Z,26.09
2018-07-01T17:40:32.843Z,25.86
2018-07-01T17:43:02.023Z,26.20
2018-07-01T17:45:31.179Z,25.85
2018-07-01T17:48:00.558Z,26.45
2018-07-01T17:50:30.261Z,26.30
2018-07-01T17:52:59.562Z,26.92
2018-07-01T17:55:28.714Z,27.20
2018-07-01T17:57:58.055Z,26.43
2018-07-01T18:00:28.259Z,26.45
2018-07-01T18:02:57.423Z,27.79
2018-07-01T18:05:26.598Z,27.46
2018-07-01T18:07:55.795Z,25.59
2018-07-01T18:10:25.182Z,26.97
2018-07-01T18:12:54.459Z,27.54
2018-07-01T18:15:23.939Z,28.16
2018-07-01T18:17:53.107Z,27.99
2018-07-01T18:20:22.270Z,28.13
2018-07-01T18:23:18.237Z,28.12
2018-07-01T18:25:21.075Z,27.76
2018-07-01T18:27:59.949Z,28.90
2018-07-01T18:30:19.439Z,28.38
2018-07-01T18:32:48.603Z,28.85
2018-07-01T18:35:17.796Z,28.56
2018-07-01T18:37:47.008Z,28.28
2018-07-01T18:40:16.201Z,28.90
2018-07-01T18:42:46.080Z,28.76
2018-07-01T18:45:16.024Z,29.83
2018-07-01T18:47:45.235Z,29.19
2018-07-01T18:50:14.395Z,29.14
2018-07-01T18:52:44.508Z,29.83
2018-07-01T18:55:14.199Z,29.47
2018-07-01T18:57:43.355Z,31.12
2018-07-01T19:00:12.627Z,30.46
2018-07-01T19:02:41.748Z,31.16
2018-07-01T19:05:10.947Z,30.97
2018-07-01T19:07:40.509Z,30.75
2018-07-01T19:10:09.680Z,29.78
2018-07-01T19:12:39.407Z,31.29
2018-07-01T19:15:08.655Z,29.92
2018-07-01T19:17:37.835Z,32.01
2018-07-01T19:20:07.222Z,30.84
2018-07-01T19:22:36.511Z,32.96
2018-07-01T19:25:05.763Z,33.31
2018-07-01T19:27:34.942Z,32.28
2018-07-01T19:30:04.987Z,31.17
2018-07-01T19:32:34.247Z,33.49
2018-07-01T19:35:03.463Z,33.91
2018-07-01T19:37:32.863Z,34.41
2018-07-01T19:40:02.055Z,35.16
2018-07-01T19:42:31.881Z,36.38
2018-07-01T19:45:01.576Z,36.23
2018-07-01T19:47:30.738Z,35.63
2018-07-01T19:49:59.891Z,37.14
2018-07-01T19:52:29.154Z,37.35
2018-07-01T19:54:58.215Z,37.00
2018-07-01T19:57:27.899Z,37.52
2018-07-01T19:59:57.059Z,38.36
2018-07-01T20:02:26.243Z,37.93
2018-07-01T20:04:55.396Z,38.94
2018-07-01T20:07:24.700Z,39.22
2018-07-01T20:09:53.868Z,39.16
2018-07-01T20:12:23.039Z,39.09
2018-07-01T20:14:52.271Z,38.36
2018-07-01T20:17:21.467Z,38.40
2018-07-01T20:19:51.095Z,38.23
2018-07-01T20:22:20.271Z,38.03
2018-07-01T20:24:49.700Z,38.05
2018-07-01T20:27:19.244Z,38.55
2018-07-01T20:29:48.375Z,39.22
2018-07-01T20:32:17.737Z,39.57
2018-07-01T20:34:47.265Z,39.51
2018-07-01T20:37:16.602Z,38.72
2018-07-01T20:39:45.775Z,39.44
2018-07-01T20:42:14.943Z,39.83
2018-07-01T20:44:44.209Z,38.54
2018-07-01T20:47:13.787Z,38.25
2018-07-01T20:49:42.968Z,39.58
2018-07-01T20:52:12.763Z,40.08
2018-07-01T20:54:41.995Z,40.16
2018-07-01T20:57:11.163Z,41.43
2018-07-01T20:59:40.343Z,41.02
2018-07-01T21:02:09.527Z,40.09
2018-07-01T21:04:38.732Z,39.65
2018-07-01T21:07:07.891Z,38.96
2018-07-01T21:09:37.387Z,38.37
2018-07-01T21:12:06.592Z,39.13
2018-07-01T21:14:36.267Z,38.40
2018-07-01T21:17:05.447Z,38.64
2018-07-01T21:19:34.643Z,37.83
2018-07-01T21:22:03.824Z,37.13
2018-07-01T21:24:33.247Z,37.60
2018-07-01T21:27:03.128Z,37.82
2018-07-01T21:29:32.332Z,38.04
2018-07-01T21:32:02.667Z,37.79
2018-07-01T21:34:31.783Z,38.39
2018-07-01T21:37:01.307Z,38.48
2018-07-01T21:39:30.807Z,36.83
2018-07-01T21:42:00.503Z,38.29
2018-07-01T21:44:30.082Z,37.37
2018-07-01T21:46:59.300Z,38.23
2018-07-01T21:49:28.483Z,37.74
2018-07-01T21:51:57.654Z,37.69
2018-07-01T21:54:26.828Z,38.54
2018-07-01T21:56:56.199Z,37.90
2018-07-01T21:59:25.410Z,38.00
2018-07-01T22:01:54.650Z,38.50
2018-07-01T22:04:23.807Z,38.82
2018-07-01T22:06:58.951Z,39.25
2018-07-01T22:09:30.279Z,39.22
2018-07-01T22:13:08.092Z,38.99
2018-07-01T22:15:48.543Z,38.25
2018-07-01T22:18:17.695Z,39.10
2018-07-01T22:20:46.875Z,38.93
2018-07-01T22:23:16.179Z,39.34
2018-07-01T22:25:45.371Z,39.17
2018-07-01T22:28:14.563Z,40.40
2018-07-01T22:30:43.755Z,39.71
2018-07-01T22:33:12.928Z,40.49
2018-07-01T22:35:42.090Z,39.97
2018-07-01T22:38:11.679Z,41.07
2018-07-01T22:40:40.863Z,40.57
2018-07-01T22:43:10.543Z,40.76
2018-07-01T22:45:40.068Z,40.86
2018-07-01T22:48:09.235Z,40.66
2018-07-01T22:50:38.426Z,41.92
2018-07-01T22:53:07.649Z,41.62
2018-07-01T22:55:36.778Z,40.83
2018-07-01T22:58:06.151Z,41.16
2018-07-01T23:00:35.358Z,42.36
2018-07-01T23:03:16.039Z,41.37
2018-07-01T23:05:44.952Z,42.27
2018-07-01T23:08:14.123Z,42.25
2018-07-01T23:10:43.286Z,41.93
2018-07-01T23:13:12.427Z,42.55
2018-07-01T23:15:41.611Z,42.48
2018-07-01T23:18:11.160Z,42.32
2018-07-01T23:20:40.327Z,42.88
2018-07-01T23:23:09.542Z,43.15
2018-07-01T23:25:38.727Z,43.45
2018-07-01T23:28:08.187Z,43.40
2018-07-01T23:30:37.560Z,43.23
2018-07-01T23:33:07.548Z,43.49
2018-07-01T23:35:36.715Z,43.41
2018-07-01T23:38:05.934Z,44.15
2018-07-01T23:40:35.180Z,43.75
2018-07-01T23:43:04.346Z,43.09
2018-07-01T23:45:33.671Z,43.53
2018-07-01T23:48:03.037Z,43.95
2018-07-01T23:50:32.687Z,43.39
2018-07-01T23:53:02.890Z,44.15
2018-07-01T23:55:32.073Z,44.25
2018-07-01T23:58:01.330Z,44.27
